createdAt,value
2023-02-23T00:02:15.723Z,99769.22
2023-02-23T00:04:44.196Z,99765.97
2023-02-23T00:07:12.961Z,99767.03
2023-02-23T00:09:41.394Z,99774.94
2023-02-23T00:12:09.838Z,99779.25
2023-02-23T00:14:39.119Z,99783.41
2023-02-23T00:17:15.429Z,99784.94
2023-02-23T00:19:47.064Z,99785.56
2023-02-23T00:22:15.457Z,99784.63
2023-02-23T00:24:43.816Z,99790.03
2023-02-23T00:27:18.700Z,99786.59
2023-02-23T00:29:50.252Z,99788.00
2023-02-23T00:32:22.328Z,99785.34
2023-02-23T00:34:51.471Z,99793.06
2023-02-23T00:37:20.479Z,99799.56
2023-02-23T00:39:48.771Z,99801.22
2023-02-23T00:42:17.151Z,99816.03
2023-02-23T00:44:45.460Z,99813.38
2023-02-23T00:47:13.886Z,99811.50
2023-02-23T00:49:42.753Z,99817.97
2023-02-23T00:52:11.060Z,99820.88
2023-02-23T00:54:39.338Z,99823.78
2023-02-23T00:57:07.622Z,99826.38
2023-02-23T00:59:35.996Z,99829.31
2023-02-23T01:02:04.481Z,99837.78
2023-02-23T01:04:32.813Z,99841.94
2023-02-23T01:07:01.140Z,99840.53
2023-02-23T01:09:29.513Z,99835.84
2023-02-23T01:12:02.470Z,99835.97
2023-02-23T01:14:32.081Z,99834.84
2023-02-23T01:17:01.237Z,99843.81
2023-02-23T01:19:29.619Z,99855.38
2023-02-23T01:21:57.961Z,99851.91
2023-02-23T01:24:26.334Z,99848.00
2023-02-23T01:26:54.790Z,99856.00
2023-02-23T01:29:23.112Z,99861.69
2023-02-23T01:31:54.283Z,99852.16
2023-02-23T01:34:22.988Z,99860.97
2023-02-23T01:36:52.313Z,99875.31
2023-02-23T01:39:22.049Z,99876.19
2023-02-23T01:41:52.758Z,99876.28
2023-02-23T01:44:21.028Z,99889.41
2023-02-23T01:46:51.134Z,99881.91
2023-02-23T01:49:26.457Z,99887.88
2023-02-23T01:52:06.058Z,99898.34
2023-02-23T01:54:40.005Z,99897.22
2023-02-23T01:57:12.490Z,99896.56
2023-02-23T01:59:44.201Z,99893.06
2023-02-23T02:02:14.264Z,99897.97
2023-02-23T02:04:47.317Z,99899.59
2023-02-23T02:07:28.013Z,99908.56
2023-02-23T02:10:14.627Z,99907.91
2023-02-23T02:12:46.371Z,99911.88
2023-02-23T02:15:19.060Z,99917.53
2023-02-23T02:18:10.067Z,99915.88
2023-02-23T02:20:59.309Z,99912.69
2023-02-23T02:23:54.862Z,99913.34
2023-02-23T02:26:30.451Z,99922.09
2023-02-23T02:29:16.744Z,99917.38
2023-02-23T02:32:03.820Z,99915.41
2023-02-23T02:35:08.395Z,99913.75
2023-02-23T02:38:02.585Z,99914.09
2023-02-23T02:41:10.117Z,99904.56
2023-02-23T02:43:43.857Z,99901.56
2023-02-23T02:46:24.748Z,99904.63
2023-02-23T02:49:04.967Z,99907.50
2023-02-23T02:51:37.658Z,99896.38
2023-02-23T02:54:39.407Z,99903.56
2023-02-23T02:57:09.002Z,99895.25
2023-02-23T03:00:08.564Z,99892.28
2023-02-23T03:02:58.998Z,99895.69
2023-02-23T03:05:53.871Z,99897.09
2023-02-23T03:08:53.144Z,99888.78
2023-02-23T03:11:39.707Z,99892.72
2023-02-23T03:14:26.526Z,99881.38
2023-02-23T03:17:12.840Z,99884.97
2023-02-23T03:20:20.391Z,99886.56
2023-02-23T03:23:37.690Z,99877.22
2023-02-23T03:26:57.868Z,99881.88
2023-02-23T03:30:03.187Z,99873.00
2023-02-23T03:33:13.174Z,99865.66
2023-02-23T03:36:23.210Z,99870.34
2023-02-23T03:39:19.180Z,99855.84
2023-02-23T03:42:09.791Z,99858.94
2023-02-23T03:45:01.890Z,99851.34
2023-02-23T03:47:54.466Z,99841.69
2023-02-23T03:50:48.945Z,99837.38
2023-02-23T03:53:41.067Z,99835.09
2023-02-23T03:56:29.640Z,99826.69
2023-02-23T03:59:19.766Z,99826.00
2023-02-23T04:02:07.949Z,99818.88
2023-02-23T04:04:56.156Z,99821.75
2023-02-23T04:07:43.510Z,99812.59
2023-02-23T04:10:31.643Z,99813.63
2023-02-23T04:13:17.388Z,99809.03
2023-02-23T04:16:02.450Z,99798.09
2023-02-23T04:18:34.402Z,99799.63
2023-02-23T04:21:03.896Z,99794.75
2023-02-23T04:23:32.894Z,99791.69
2023-02-23T04:26:01.268Z,99783.00
2023-02-23T04:28:30.426Z,99772.56
2023-02-23T04:30:58.805Z,99766.97
2023-02-23T04:33:28.158Z,99765.66
2023-02-23T04:35:56.889Z,99758.25
2023-02-23T04:38:25.638Z,99758.00
2023-02-23T04:40:54.055Z,99747.50
2023-02-23T04:43:22.399Z,99734.94
2023-02-23T04:45:50.733Z,99737.22
2023-02-23T04:48:19.048Z,99730.84
2023-02-23T04:50:47.342Z,99725.19
2023-02-23T04:53:15.750Z,99714.72
2023-02-23T04:55:44.795Z,99711.09
2023-02-23T04:58:15.004Z,99712.34
2023-02-23T05:00:43.613Z,99705.19
2023-02-23T05:03:13.162Z,99708.50
2023-02-23T05:05:41.590Z,99696.19
2023-02-23T05:08:10.207Z,99691.81
2023-02-23T05:10:40.252Z,99681.28
2023-02-23T05:13:09.010Z,99675.38
2023-02-23T05:15:38.264Z,99673.81
2023-02-23T05:18:06.722Z,99668.19
2023-02-23T05:20:35.176Z,99661.50
2023-02-23T05:23:03.680Z,99646.13
2023-02-23T05:25:31.996Z,99640.22
2023-02-23T05:28:00.623Z,99631.72
2023-02-23T05:30:28.980Z,99626.31
2023-02-23T05:32:57.326Z,99620.91
2023-02-23T05:35:25.787Z,99615.44
2023-02-23T05:37:54.174Z,99608.47
2023-02-23T05:40:22.505Z,99606.88
2023-02-23T05:42:50.889Z,99599.94
2023-02-23T05:45:19.293Z,99589.13
2023-02-23T05:47:47.595Z,99584.72
2023-02-23T05:50:15.892Z,99583.91
2023-02-23T05:52:44.238Z,99573.84
2023-02-23T05:55:13.728Z,99573.56
2023-02-23T05:57:42.320Z,99567.66
2023-02-23T06:00:11.632Z,99558.91
2023-02-23T06:02:40.936Z,99555.78
2023-02-23T06:05:11.728Z,99548.34
2023-02-23T06:07:40.526Z,99536.00
2023-02-23T06:10:09.703Z,99531.56
2023-02-23T06:12:38.048Z,99531.50
2023-02-23T06:15:06.940Z,99526.34
2023-02-23T06:17:35.302Z,99525.50
2023-02-23T06:20:05.712Z,99517.81
2023-02-23T06:22:34.127Z,99509.03
2023-02-23T06:25:06.587Z,99502.56
2023-02-23T06:27:34.877Z,99503.75
2023-02-23T06:30:03.161Z,99501.63
2023-02-23T06:32:31.535Z,99493.09
2023-02-23T06:35:00.649Z,99478.16
2023-02-23T06:37:29.942Z,99480.69
2023-02-23T06:39:58.428Z,99474.94
2023-02-23T06:42:26.918Z,99474.09
2023-02-23T06:44:55.233Z,99460.97
2023-02-23T06:47:23.780Z,99457.09
2023-02-23T06:49:52.082Z,99457.31
2023-02-23T06:52:20.376Z,99447.00
2023-02-23T06:54:50.911Z,99447.97
2023-02-23T06:57:20.344Z,99441.47
2023-02-23T06:59:48.740Z,99438.13
2023-02-23T07:02:17.163Z,99431.38
2023-02-23T07:04:45.553Z,99427.25
2023-02-23T07:07:14.119Z,99413.16
2023-02-23T07:09:43.866Z,99412.06
2023-02-23T07:12:12.263Z,99403.59
2023-02-23T07:14:41.066Z,99399.47
2023-02-23T07:17:11.552Z,99404.06
2023-02-23T07:19:41.021Z,99389.41
2023-02-23T07:22:09.365Z,99391.91
2023-02-23T07:24:38.463Z,99387.44
2023-02-23T07:27:06.780Z,99377.13
2023-02-23T07:29:35.171Z,99372.47
2023-02-23T07:32:03.603Z,99376.81
2023-02-23T07:34:31.995Z,99372.69
2023-02-23T07:37:00.318Z,99366.84
2023-02-23T07:39:28.766Z,99360.09
2023-02-23T07:41:57.082Z,99353.69
2023-02-23T07:44:25.465Z,99352.19
2023-02-23T07:46:54.139Z,99348.06
2023-02-23T07:49:22.444Z,99348.06
2023-02-23T07:51:50.781Z,99339.78
2023-02-23T07:54:19.116Z,99345.66
2023-02-23T07:56:47.447Z,99347.94
2023-02-23T07:59:16.263Z,99336.63
2023-02-23T08:01:44.712Z,99329.69
2023-02-23T08:04:13.087Z,99324.59
2023-02-23T08:06:41.417Z,99329.13
2023-02-23T08:09:09.939Z,99321.44
2023-02-23T08:11:38.264Z,99314.25
2023-02-23T08:14:06.725Z,99308.81
2023-02-23T08:16:35.403Z,99303.97
2023-02-23T08:19:03.897Z,99305.47
2023-02-23T08:21:32.852Z,99301.34
2023-02-23T08:24:01.472Z,99301.16
2023-02-23T08:26:29.837Z,99301.34
2023-02-23T08:28:58.262Z,99303.41
2023-02-23T08:31:28.481Z,99304.38
2023-02-23T08:33:57.049Z,99300.06
2023-02-23T08:36:25.451Z,99303.41
2023-02-23T08:38:55.117Z,99300.59
2023-02-23T08:41:23.500Z,99297.22
2023-02-23T08:43:51.939Z,99300.81
2023-02-23T08:46:21.482Z,99300.25
2023-02-23T08:48:49.920Z,99300.25
2023-02-23T08:51:18.746Z,99295.91
2023-02-23T08:53:47.527Z,99288.75
2023-02-23T08:56:16.441Z,99287.78
2023-02-23T08:58:44.879Z,99294.94
2023-02-23T09:01:22.802Z,99292.88
2023-02-23T09:03:51.636Z,99290.81
2023-02-23T09:06:23.047Z,99296.47
2023-02-23T09:08:51.473Z,99294.19
2023-02-23T09:11:20.102Z,99291.38
2023-02-23T09:13:48.723Z,99289.84
2023-02-23T09:16:17.508Z,99289.31
2023-02-23T09:18:46.172Z,99291.56
2023-02-23T09:21:21.968Z,99295.16
2023-02-23T09:23:52.212Z,99286.69
2023-02-23T09:26:21.982Z,99288.00
2023-02-23T09:28:50.849Z,99290.47
2023-02-23T09:31:22.535Z,99284.84
2023-02-23T09:33:52.589Z,99285.94
2023-02-23T09:36:26.585Z,99284.41
2023-02-23T09:38:58.100Z,99280.84
2023-02-23T09:42:01.640Z,99285.47
2023-02-23T09:44:44.169Z,99290.91
2023-02-23T09:47:27.310Z,99291.47
2023-02-23T09:49:57.401Z,99289.53
2023-02-23T09:52:43.073Z,99284.97
2023-02-23T09:55:14.618Z,99283.00
2023-02-23T09:57:47.204Z,99294.63
2023-02-23T10:00:25.090Z,99297.56
2023-02-23T10:03:34.711Z,99303.31
2023-02-23T10:06:10.210Z,99297.78
2023-02-23T10:09:12.672Z,99302.03
2023-02-23T10:12:06.761Z,99301.38
2023-02-23T10:14:51.969Z,99300.94
2023-02-23T10:17:35.230Z,99302.31
2023-02-23T10:20:21.127Z,99300.91
2023-02-23T10:22:51.334Z,99302.31
2023-02-23T10:25:26.946Z,99293.94
2023-02-23T10:27:58.484Z,99299.66
2023-02-23T10:30:30.210Z,99300.53
2023-02-23T10:33:28.299Z,99306.28
2023-02-23T10:36:12.854Z,99298.47
2023-02-23T10:38:41.869Z,99297.00
2023-02-23T10:41:14.719Z,99304.03
2023-02-23T10:43:43.677Z,99303.38
2023-02-23T10:46:22.713Z,99307.59
2023-02-23T10:48:53.893Z,99309.72
2023-02-23T10:51:29.526Z,99311.84
2023-02-23T10:54:07.484Z,99306.84
2023-02-23T10:56:47.631Z,99316.66
2023-02-23T10:59:22.335Z,99310.34
2023-02-23T11:02:01.560Z,99315.28
2023-02-23T11:04:35.682Z,99313.63
2023-02-23T11:07:17.814Z,99318.34
2023-02-23T11:09:48.141Z,99319.72
2023-02-23T11:12:27.018Z,99327.22
2023-02-23T11:14:58.057Z,99321.19
2023-02-23T11:17:38.776Z,99325.69
2023-02-23T11:20:19.038Z,99329.59
2023-02-23T11:22:47.697Z,99328.16
2023-02-23T11:25:25.527Z,99323.13
2023-02-23T11:27:54.854Z,99330.59
2023-02-23T11:30:26.321Z,99328.38
2023-02-23T11:33:03.473Z,99319.22
2023-02-23T11:35:33.224Z,99322.09
2023-02-23T11:38:15.474Z,99322.66
2023-02-23T11:40:43.805Z,99321.19
2023-02-23T11:43:21.825Z,99327.41
2023-02-23T11:45:53.236Z,99331.53
2023-02-23T11:48:39.817Z,99333.38
2023-02-23T11:51:08.956Z,99332.16
2023-02-23T11:53:41.387Z,99337.81
2023-02-23T11:56:13.413Z,99336.88
2023-02-23T11:58:45.474Z,99338.94
2023-02-23T12:01:18.025Z,99341.50
2023-02-23T12:03:54.037Z,99343.59
2023-02-23T12:06:43.563Z,99354.88
2023-02-23T12:09:33.919Z,99356.97
2023-02-23T12:12:15.365Z,99352.66
2023-02-23T12:14:52.242Z,99357.53
2023-02-23T12:17:36.529Z,99358.84
2023-02-23T12:20:30.402Z,99358.13
2023-02-23T12:23:09.280Z,99367.06
2023-02-23T12:25:54.054Z,99364.28
2023-02-23T12:28:44.637Z,99377.03
2023-02-23T12:31:41.460Z,99381.91
2023-02-23T12:34:28.629Z,99382.19
2023-02-23T12:37:10.444Z,99389.34
2023-02-23T12:39:44.518Z,99388.06
2023-02-23T12:42:29.918Z,99390.88
2023-02-23T12:45:05.116Z,99398.81
2023-02-23T12:48:01.299Z,99395.50
2023-02-23T12:50:31.915Z,99402.91
2023-02-23T12:53:09.118Z,99402.41
2023-02-23T12:55:49.631Z,99411.81
2023-02-23T12:58:29.818Z,99410.78
2023-02-23T13:01:05.258Z,99411.06
2023-02-23T13:03:42.328Z,99414.38
2023-02-23T13:06:21.611Z,99409.81
2023-02-23T13:09:10.023Z,99415.16
2023-02-23T13:12:12.354Z,99421.28
2023-02-23T13:14:57.708Z,99423.81
2023-02-23T13:17:28.865Z,99429.19
2023-02-23T13:20:02.763Z,99428.94
2023-02-23T13:22:47.139Z,99431.44
2023-02-23T13:25:42.733Z,99436.81
2023-02-23T13:28:38.298Z,99433.00
2023-02-23T13:31:13.383Z,99437.03
2023-02-23T13:33:44.290Z,99438.06
2023-02-23T13:36:13.804Z,99443.41
2023-02-23T13:38:47.640Z,99446.97
2023-02-23T13:41:35.056Z,99447.75
2023-02-23T13:44:21.771Z,99453.34
2023-02-23T13:47:07.898Z,99449.75
2023-02-23T13:49:55.980Z,99453.31
2023-02-23T13:52:42.509Z,99449.25
2023-02-23T13:55:40.057Z,99453.56
2023-02-23T13:58:19.395Z,99461.97
2023-02-23T14:01:04.289Z,99454.81
2023-02-23T14:03:41.057Z,99461.16
2023-02-23T14:06:13.788Z,99465.19
2023-02-23T14:08:46.281Z,99467.97
2023-02-23T14:11:31.080Z,99461.59
2023-02-23T14:14:03.231Z,99465.91
2023-02-23T14:16:32.162Z,99473.75
2023-02-23T14:19:10.840Z,99474.75
2023-02-23T14:21:51.003Z,99467.13
2023-02-23T14:24:21.278Z,99469.38
2023-02-23T14:27:27.822Z,99470.41
2023-02-23T14:30:11.931Z,99474.19
2023-02-23T14:32:46.728Z,99474.44
2023-02-23T14:35:33.778Z,99469.06
2023-02-23T14:38:17.540Z,99465.72
2023-02-23T14:40:50.241Z,99461.16
2023-02-23T14:43:36.942Z,99465.44
2023-02-23T14:46:09.845Z,99473.31
2023-02-23T14:48:59.518Z,99474.81
2023-02-23T14:51:45.833Z,99466.66
2023-02-23T14:54:24.528Z,99464.03
2023-02-23T14:56:56.112Z,99475.47
2023-02-23T14:59:28.335Z,99476.47
2023-02-23T15:02:00.858Z,99477.47
2023-02-23T15:04:31.426Z,99479.22
2023-02-23T15:07:03.165Z,99476.94
2023-02-23T15:09:44.258Z,99470.31
2023-02-23T15:12:21.406Z,99477.16
2023-02-23T15:14:51.230Z,99472.31
2023-02-23T15:17:25.381Z,99470.47
2023-02-23T15:20:14.800Z,99469.44
2023-02-23T15:22:52.230Z,99467.66
2023-02-23T15:25:24.835Z,99463.31
2023-02-23T15:27:54.062Z,99467.38
2023-02-23T15:30:33.318Z,99468.38
2023-02-23T15:33:13.348Z,99473.97
2023-02-23T15:35:53.713Z,99469.66
2023-02-23T15:38:44.138Z,99481.59
2023-02-23T15:41:31.824Z,99473.19
2023-02-23T15:44:29.676Z,99472.69
2023-02-23T15:47:07.779Z,99472.97
2023-02-23T15:49:41.188Z,99470.44
2023-02-23T15:52:21.788Z,99468.41
2023-02-23T15:55:02.479Z,99469.94
2023-02-23T15:57:33.137Z,99471.97
2023-02-23T16:00:11.268Z,99474.50
2023-02-23T16:02:42.233Z,99467.63
2023-02-23T16:05:21.371Z,99470.63
2023-02-23T16:07:49.774Z,99470.09
2023-02-23T16:10:25.935Z,99471.09
2023-02-23T16:12:55.579Z,99472.84
2023-02-23T16:15:28.773Z,99471.53
2023-02-23T16:18:03.844Z,99471.75
2023-02-23T16:20:42.326Z,99473.50
2023-02-23T16:23:34.211Z,99475.28
2023-02-23T16:26:13.822Z,99460.75
2023-02-23T16:28:45.936Z,99463.78
2023-02-23T16:31:21.364Z,99474.38
2023-02-23T16:33:55.418Z,99469.50
2023-02-23T16:36:26.202Z,99464.63
2023-02-23T16:38:59.009Z,99470.91
2023-02-23T16:41:31.418Z,99474.69
2023-02-23T16:44:03.271Z,99461.72
2023-02-23T16:46:38.638Z,99470.59
2023-02-23T16:49:11.071Z,99463.47
2023-02-23T16:51:39.409Z,99462.44
2023-02-23T16:54:09.309Z,99464.97
2023-02-23T16:56:40.811Z,99458.34
2023-02-23T16:59:15.155Z,99460.84
2023-02-23T17:01:43.548Z,99461.81
2023-02-23T17:04:16.360Z,99463.84
2023-02-23T17:06:53.733Z,99462.03
2023-02-23T17:09:22.485Z,99466.84
2023-02-23T17:11:50.829Z,99462.25
2023-02-23T17:14:28.973Z,99457.94
2023-02-23T17:16:57.371Z,99456.13
2023-02-23T17:19:26.136Z,99456.63
2023-02-23T17:21:54.568Z,99464.72
2023-02-23T17:24:27.116Z,99458.84
2023-02-23T17:26:56.444Z,99459.34
2023-02-23T17:29:25.436Z,99456.28
2023-02-23T17:31:54.066Z,99460.34
2023-02-23T17:34:22.638Z,99457.25
2023-02-23T17:36:50.959Z,99455.25
2023-02-23T17:39:19.589Z,99454.94
2023-02-23T17:41:48.334Z,99453.91
2023-02-23T17:44:16.627Z,99457.19
2023-02-23T17:46:45.576Z,99454.13
2023-02-23T17:49:13.870Z,99456.63
2023-02-23T17:51:42.192Z,99452.31
2023-02-23T17:54:10.700Z,99445.19
2023-02-23T17:56:39.274Z,99453.56
2023-02-23T17:59:07.669Z,99450.00
2023-02-23T18:01:35.974Z,99447.22
2023-02-23T18:04:04.643Z,99445.41
2023-02-23T18:06:33.000Z,99448.97
2023-02-23T18:09:02.030Z,99443.84
2023-02-23T18:11:30.364Z,99445.88
2023-02-23T18:13:59.027Z,99436.94
2023-02-23T18:16:27.938Z,99445.03
2023-02-23T18:18:58.976Z,99438.91
2023-02-23T18:21:28.167Z,99435.03
2023-02-23T18:23:56.672Z,99434.00
2023-02-23T18:26:25.830Z,99435.75
2023-02-23T18:28:55.190Z,99437.00
2023-02-23T18:31:26.602Z,99436.72
2023-02-23T18:33:55.621Z,99433.94
2023-02-23T18:36:30.302Z,99439.25
2023-02-23T18:39:00.579Z,99432.13
2023-02-23T18:41:31.750Z,99438.19
2023-02-23T18:44:05.218Z,99445.03
2023-02-23T18:46:33.917Z,99428.00
2023-02-23T18:49:02.726Z,99443.22
2023-02-23T18:51:31.488Z,99438.41
2023-02-23T18:54:00.758Z,99436.38
2023-02-23T18:56:29.859Z,99432.34
2023-02-23T18:59:00.746Z,99437.16
2023-02-23T19:01:32.651Z,99433.59
2023-02-23T19:04:03.063Z,99435.13
2023-02-23T19:06:32.214Z,99436.38
2023-02-23T19:09:04.239Z,99431.28
2023-02-23T19:11:34.731Z,99433.31
2023-02-23T19:14:06.388Z,99434.84
2023-02-23T19:16:36.328Z,99426.22
2023-02-23T19:19:07.028Z,99433.03
2023-02-23T19:21:35.650Z,99433.03
2023-02-23T19:24:04.406Z,99425.94
2023-02-23T19:26:34.748Z,99431.22
2023-02-23T19:29:03.410Z,99425.38
2023-02-23T19:31:31.951Z,99433.75
2023-02-23T19:34:00.695Z,99427.84
2023-02-23T19:36:34.785Z,99432.66
2023-02-23T19:39:16.459Z,99434.69
2023-02-23T19:41:46.250Z,99436.72
2023-02-23T19:44:14.534Z,99430.84
2023-02-23T19:46:43.859Z,99430.84
2023-02-23T19:49:12.696Z,99430.09
2023-02-23T19:51:41.048Z,99430.09
2023-02-23T19:54:09.695Z,99439.69
2023-02-23T19:56:39.017Z,99432.59
2023-02-23T19:59:07.862Z,99438.66
2023-02-23T20:01:37.049Z,99445.22
2023-02-23T20:04:06.913Z,99441.38
2023-02-23T20:06:41.944Z,99434.25
2023-02-23T20:09:10.526Z,99436.28
2023-02-23T20:11:38.983Z,99439.06
2023-02-23T20:14:09.040Z,99434.47
2023-02-23T20:16:37.759Z,99429.38
2023-02-23T20:19:07.600Z,99434.69
2023-02-23T20:21:37.614Z,99435.16
2023-02-23T20:24:06.531Z,99432.09
2023-02-23T20:26:37.922Z,99431.31
2023-02-23T20:29:11.588Z,99429.00
2023-02-23T20:31:42.839Z,99420.34
2023-02-23T20:34:12.050Z,99436.78
2023-02-23T20:36:40.952Z,99428.44
2023-02-23T20:39:11.506Z,99436.50
2023-02-23T20:41:44.915Z,99433.44
2023-02-23T20:44:15.069Z,99435.97
2023-02-23T20:46:45.537Z,99441.53
2023-02-23T20:49:15.172Z,99442.78
2023-02-23T20:51:45.733Z,99446.06
2023-02-23T20:54:15.505Z,99442.94
2023-02-23T20:56:44.953Z,99442.66
2023-02-23T20:59:14.785Z,99447.19
2023-02-23T21:01:45.240Z,99450.47
2023-02-23T21:04:14.049Z,99449.69
2023-02-23T21:06:43.080Z,99448.16
2023-02-23T21:09:18.089Z,99450.66
2023-02-23T21:11:47.352Z,99449.91
2023-02-23T21:14:16.406Z,99453.16
2023-02-23T21:16:47.957Z,99451.59
2023-02-23T21:19:18.244Z,99452.84
2023-02-23T21:21:49.754Z,99455.66
2023-02-23T21:24:19.848Z,99451.31
2023-02-23T21:26:48.900Z,99458.44
2023-02-23T21:29:17.473Z,99451.31
2023-02-23T21:31:47.744Z,99458.16
2023-02-23T21:34:22.610Z,99453.81
2023-02-23T21:36:52.263Z,99460.66
2023-02-23T21:39:20.898Z,99454.03
2023-02-23T21:41:49.418Z,99458.81
2023-02-23T21:44:17.738Z,99460.09
2023-02-23T21:46:46.063Z,99469.41
2023-02-23T21:49:14.513Z,99474.97
2023-02-23T21:51:42.889Z,99466.03
2023-02-23T21:54:11.952Z,99476.41
2023-02-23T21:56:40.333Z,99477.66
2023-02-23T21:59:09.431Z,99471.81
2023-02-23T22:01:40.540Z,99484.22
2023-02-23T22:04:12.535Z,99487.94
2023-02-23T22:06:44.670Z,99480.56
2023-02-23T22:09:16.502Z,99474.69
2023-02-23T22:11:48.088Z,99481.22
2023-02-23T22:14:20.186Z,99490.81
2023-02-23T22:16:50.582Z,99484.94
2023-02-23T22:19:19.692Z,99492.25
2023-02-23T22:21:51.317Z,99488.69
2023-02-23T22:24:19.934Z,99500.31
2023-02-23T22:26:55.372Z,99498.50
2023-02-23T22:29:26.086Z,99507.31
2023-02-23T22:31:54.621Z,99504.72
2023-02-23T22:34:23.448Z,99516.81
2023-02-23T22:36:51.946Z,99512.50
2023-02-23T22:39:20.885Z,99520.56
2023-02-23T22:41:49.980Z,99530.63
2023-02-23T22:44:23.523Z,99530.81
2023-02-23T22:46:53.103Z,99532.81
2023-02-23T22:49:21.517Z,99535.31
2023-02-23T22:51:51.350Z,99545.69
2023-02-23T22:54:21.320Z,99548.16
2023-02-23T22:56:49.933Z,99551.44
2023-02-23T22:59:21.259Z,99551.91
2023-02-23T23:01:51.139Z,99561.47
2023-02-23T23:04:22.826Z,99563.97
2023-02-23T23:06:51.610Z,99569.22
2023-02-23T23:09:22.010Z,99568.47
2023-02-23T23:11:51.810Z,99576.53
2023-02-23T23:14:20.648Z,99582.56
2023-02-23T23:16:49.057Z,99582.25
2023-02-23T23:19:26.902Z,99587.84
2023-02-23T23:21:56.470Z,99590.31
2023-02-23T23:24:26.102Z,99586.44
2023-02-23T23:27:01.215Z,99605.16
2023-02-23T23:29:31.405Z,99601.59
2023-02-23T23:32:01.953Z,99612.72
2023-02-23T23:34:34.348Z,99613.97
2023-02-23T23:37:03.682Z,99616.75
2023-02-23T23:39:31.983Z,99621.56
2023-02-23T23:42:02.705Z,99618.00
2023-02-23T23:44:31.028Z,99622.78
2023-02-23T23:46:59.552Z,99631.16
2023-02-23T23:49:27.894Z,99633.94
2023-02-23T23:51:57.545Z,99646.59
2023-02-23T23:54:34.272Z,99650.91
2023-02-23T23:57:02.882Z,99648.13
2023-02-23T23:59:32.798Z,99651.97
